sensor_id;sensor_type;location;lat;lon;timestamp;P1;durP1;ratioP1;P2;durP2;ratioP2
16127;SDS011;8168;49.036;7.690;2023-08-12T00:02:24;3.83;;;3.53;;
16127;SDS011;8168;49.036;7.690;2023-08-12T00:04:54;4.27;;;3.70;;
16127;SDS011;8168;49.036;7.690;2023-08-12T00:07:25;4.97;;;3.07;;
16127;SDS011;8168;49.036;7.690;2023-08-12T00:09:55;4.47;;;3.60;;
16127;SDS011;8168;49.036;7.690;2023-08-12T00:12:26;3.93;;;3.47;;
16127;SDS011;8168;49.036;7.690;2023-08-12T00:14:57;4.00;;;3.70;;
16127;SDS011;8168;49.036;7.690;2023-08-12T00:17:28;4.10;;;3.70;;
16127;SDS011;8168;49.036;7.690;2023-08-12T00:19:59;4.93;;;4.00;;
16127;SDS011;8168;49.036;7.690;2023-08-12T00:22:29;3.87;;;3.57;;
16127;SDS011;8168;49.036;7.690;2023-08-12T00:25:00;3.70;;;3.40;;
16127;SDS011;8168;49.036;7.690;2023-08-12T00:27:31;4.10;;;3.70;;
16127;SDS011;8168;49.036;7.690;2023-08-12T00:30:01;3.97;;;3.57;;
16127;SDS011;8168;49.036;7.690;2023-08-12T00:32:32;3.97;;;3.57;;
16127;SDS011;8168;49.036;7.690;2023-08-12T00:35:03;4.03;;;3.63;;
16127;SDS011;8168;49.036;7.690;2023-08-12T00:37:34;3.90;;;3.50;;
16127;SDS011;8168;49.036;7.690;2023-08-12T00:40:04;3.87;;;3.47;;
16127;SDS011;8168;49.036;7.690;2023-08-12T00:42:36;4.80;;;3.53;;
16127;SDS011;8168;49.036;7.690;2023-08-12T00:45:10;4.00;;;3.60;;
16127;SDS011;8168;49.036;7.690;2023-08-12T00:47:42;5.30;;;3.60;;
16127;SDS011;8168;49.036;7.690;2023-08-12T00:50:13;4.37;;;3.80;;
16127;SDS011;8168;49.036;7.690;2023-08-12T00:52:45;3.70;;;3.40;;
16127;SDS011;8168;49.036;7.690;2023-08-12T00:55:16;4.20;;;3.67;;
16127;SDS011;8168;49.036;7.690;2023-08-12T00:57:47;4.13;;;3.60;;
16127;SDS011;8168;49.036;7.690;2023-08-12T01:00:18;5.30;;;3.37;;
16127;SDS011;8168;49.036;7.690;2023-08-12T01:02:54;4.63;;;4.10;;
16127;SDS011;8168;49.036;7.690;2023-08-12T01:05:26;4.90;;;3.70;;
16127;SDS011;8168;49.036;7.690;2023-08-12T01:07:57;5.30;;;4.33;;
16127;SDS011;8168;49.036;7.690;2023-08-12T01:10:30;5.43;;;3.73;;
16127;SDS011;8168;49.036;7.690;2023-08-12T01:13:07;5.53;;;4.30;;
16127;SDS011;8168;49.036;7.690;2023-08-12T01:15:41;6.17;;;4.40;;
16127;SDS011;8168;49.036;7.690;2023-08-12T01:18:13;4.70;;;4.20;;
16127;SDS011;8168;49.036;7.690;2023-08-12T01:20:44;4.70;;;3.30;;
16127;SDS011;8168;49.036;7.690;2023-08-12T01:23:17;5.43;;;4.07;;
16127;SDS011;8168;49.036;7.690;2023-08-12T01:25:48;5.47;;;4.07;;
16127;SDS011;8168;49.036;7.690;2023-08-12T01:28:18;4.37;;;3.97;;
16127;SDS011;8168;49.036;7.690;2023-08-12T01:31:32;4.27;;;3.83;;
16127;SDS011;8168;49.036;7.690;2023-08-12T01:34:00;4.47;;;3.47;;
16127;SDS011;8168;49.036;7.690;2023-08-12T01:36:37;3.80;;;3.30;;
16127;SDS011;8168;49.036;7.690;2023-08-12T01:39:13;7.80;;;4.20;;
16127;SDS011;8168;49.036;7.690;2023-08-12T01:41:45;3.33;;;3.03;;
16127;SDS011;8168;49.036;7.690;2023-08-12T01:44:16;4.33;;;3.90;;
16127;SDS011;8168;49.036;7.690;2023-08-12T01:46:48;4.90;;;4.00;;
16127;SDS011;8168;49.036;7.690;2023-08-12T01:49:19;4.50;;;4.10;;
16127;SDS011;8168;49.036;7.690;2023-08-12T01:51:50;6.23;;;3.70;;
16127;SDS011;8168;49.036;7.690;2023-08-12T01:54:20;4.03;;;3.63;;
16127;SDS011;8168;49.036;7.690;2023-08-12T01:56:51;7.87;;;4.00;;
16127;SDS011;8168;49.036;7.690;2023-08-12T01:59:21;5.03;;;3.90;;
16127;SDS011;8168;49.036;7.690;2023-08-12T02:01:52;5.10;;;3.83;;
16127;SDS011;8168;49.036;7.690;2023-08-12T02:04:22;5.00;;;3.93;;
16127;SDS011;8168;49.036;7.690;2023-08-12T02:06:53;5.33;;;4.07;;
16127;SDS011;8168;49.036;7.690;2023-08-12T02:09:24;4.40;;;3.93;;
16127;SDS011;8168;49.036;7.690;2023-08-12T02:11:55;4.30;;;3.90;;
16127;SDS011;8168;49.036;7.690;2023-08-12T02:14:26;8.10;;;3.73;;
16127;SDS011;8168;49.036;7.690;2023-08-12T02:16:56;4.97;;;3.60;;
16127;SDS011;8168;49.036;7.690;2023-08-12T02:19:27;5.53;;;3.90;;
16127;SDS011;8168;49.036;7.690;2023-08-12T02:21:58;5.13;;;3.90;;
16127;SDS011;8168;49.036;7.690;2023-08-12T02:24:29;4.37;;;3.97;;
16127;SDS011;8168;49.036;7.690;2023-08-12T02:26:59;6.50;;;4.10;;
16127;SDS011;8168;49.036;7.690;2023-08-12T02:29:30;4.73;;;3.70;;
16127;SDS011;8168;49.036;7.690;2023-08-12T02:32:00;4.67;;;3.60;;
16127;SDS011;8168;49.036;7.690;2023-08-12T02:34:31;5.20;;;3.80;;
16127;SDS011;8168;49.036;7.690;2023-08-12T02:37:02;4.87;;;3.77;;
16127;SDS011;8168;49.036;7.690;2023-08-12T02:39:32;6.03;;;3.80;;
16127;SDS011;8168;49.036;7.690;2023-08-12T02:42:03;5.63;;;4.27;;
16127;SDS011;8168;49.036;7.690;2023-08-12T02:44:34;5.03;;;4.03;;
16127;SDS011;8168;49.036;7.690;2023-08-12T02:47:05;3.80;;;3.50;;
16127;SDS011;8168;49.036;7.690;2023-08-12T02:49:36;4.53;;;3.90;;
16127;SDS011;8168;49.036;7.690;2023-08-12T02:52:06;6.50;;;4.50;;
16127;SDS011;8168;49.036;7.690;2023-08-12T02:54:37;7.73;;;4.20;;
16127;SDS011;8168;49.036;7.690;2023-08-12T02:57:07;6.03;;;4.60;;
16127;SDS011;8168;49.036;7.690;2023-08-12T02:59:38;4.97;;;4.47;;
16127;SDS011;8168;49.036;7.690;2023-08-12T03:02:09;6.33;;;4.73;;
16127;SDS011;8168;49.036;7.690;2023-08-12T03:04:40;4.37;;;3.97;;
16127;SDS011;8168;49.036;7.690;2023-08-12T03:07:10;4.40;;;4.00;;
16127;SDS011;8168;49.036;7.690;2023-08-12T03:09:41;5.37;;;4.27;;
16127;SDS011;8168;49.036;7.690;2023-08-12T03:12:11;4.53;;;4.13;;
16127;SDS011;8168;49.036;7.690;2023-08-12T03:14:42;4.90;;;4.40;;
16127;SDS011;8168;49.036;7.690;2023-08-12T03:17:13;6.20;;;4.77;;
16127;SDS011;8168;49.036;7.690;2023-08-12T03:19:43;5.20;;;4.20;;
16127;SDS011;8168;49.036;7.690;2023-08-12T03:22:14;4.93;;;4.30;;
16127;SDS011;8168;49.036;7.690;2023-08-12T03:24:44;5.70;;;4.70;;
16127;SDS011;8168;49.036;7.690;2023-08-12T03:27:15;6.37;;;4.60;;
16127;SDS011;8168;49.036;7.690;2023-08-12T03:29:46;4.63;;;4.20;;
16127;SDS011;8168;49.036;7.690;2023-08-12T03:32:16;5.27;;;4.77;;
16127;SDS011;8168;49.036;7.690;2023-08-12T03:34:47;5.00;;;4.47;;
16127;SDS011;8168;49.036;7.690;2023-08-12T03:37:18;5.43;;;4.73;;
16127;SDS011;8168;49.036;7.690;2023-08-12T03:39:49;5.50;;;4.33;;
16127;SDS011;8168;49.036;7.690;2023-08-12T03:42:19;7.23;;;4.50;;
16127;SDS011;8168;49.036;7.690;2023-08-12T03:44:50;5.13;;;4.43;;
16127;SDS011;8168;49.036;7.690;2023-08-12T03:47:20;8.70;;;4.93;;
16127;SDS011;8168;49.036;7.690;2023-08-12T03:49:53;4.80;;;4.30;;
16127;SDS011;8168;49.036;7.690;2023-08-12T03:52:24;5.07;;;4.57;;
16127;SDS011;8168;49.036;7.690;2023-08-12T03:54:55;8.63;;;4.90;;
16127;SDS011;8168;49.036;7.690;2023-08-12T03:57:25;6.90;;;4.50;;
16127;SDS011;8168;49.036;7.690;2023-08-12T03:59:56;4.77;;;4.27;;
16127;SDS011;8168;49.036;7.690;2023-08-12T04:02:26;4.87;;;4.43;;
16127;SDS011;8168;49.036;7.690;2023-08-12T04:04:57;4.70;;;4.30;;
16127;SDS011;8168;49.036;7.690;2023-08-12T04:07:27;4.50;;;3.83;;
16127;SDS011;8168;49.036;7.690;2023-08-12T04:09:58;4.90;;;4.40;;
16127;SDS011;8168;49.036;7.690;2023-08-12T04:12:29;6.47;;;4.17;;
16127;SDS011;8168;49.036;7.690;2023-08-12T04:14:59;5.30;;;4.80;;
16127;SDS011;8168;49.036;7.690;2023-08-12T04:17:33;4.60;;;4.20;;
16127;SDS011;8168;49.036;7.690;2023-08-12T04:20:04;5.20;;;4.40;;
16127;SDS011;8168;49.036;7.690;2023-08-12T04:22:36;6.70;;;4.27;;
16127;SDS011;8168;49.036;7.690;2023-08-12T04:25:07;5.03;;;4.53;;
16127;SDS011;8168;49.036;7.690;2023-08-12T04:27:37;5.17;;;4.67;;
16127;SDS011;8168;49.036;7.690;2023-08-12T04:30:08;5.40;;;4.87;;
16127;SDS011;8168;49.036;7.690;2023-08-12T04:32:39;4.57;;;3.87;;
16127;SDS011;8168;49.036;7.690;2023-08-12T04:35:10;8.17;;;4.47;;
16127;SDS011;8168;49.036;7.690;2023-08-12T04:37:40;4.57;;;4.13;;
16127;SDS011;8168;49.036;7.690;2023-08-12T04:40:11;4.90;;;4.30;;
16127;SDS011;8168;49.036;7.690;2023-08-12T04:42:42;4.80;;;4.40;;
16127;SDS011;8168;49.036;7.690;2023-08-12T04:45:12;4.83;;;4.33;;
16127;SDS011;8168;49.036;7.690;2023-08-12T04:47:43;5.37;;;4.87;;
16127;SDS011;8168;49.036;7.690;2023-08-12T04:50:13;5.10;;;4.60;;
16127;SDS011;8168;49.036;7.690;2023-08-12T04:52:44;9.07;;;4.60;;
16127;SDS011;8168;49.036;7.690;2023-08-12T04:55:16;8.97;;;5.23;;
16127;SDS011;8168;49.036;7.690;2023-08-12T04:57:47;5.33;;;4.60;;
16127;SDS011;8168;49.036;7.690;2023-08-12T05:00:17;6.00;;;4.73;;
16127;SDS011;8168;49.036;7.690;2023-08-12T05:02:48;4.37;;;3.97;;
16127;SDS011;8168;49.036;7.690;2023-08-12T05:05:19;4.97;;;4.43;;
16127;SDS011;8168;49.036;7.690;2023-08-12T05:07:50;9.03;;;5.63;;
16127;SDS011;8168;49.036;7.690;2023-08-12T05:10:20;6.80;;;4.97;;
16127;SDS011;8168;49.036;7.690;2023-08-12T05:12:51;9.77;;;4.80;;
16127;SDS011;8168;49.036;7.690;2023-08-12T05:15:24;5.20;;;4.70;;
16127;SDS011;8168;49.036;7.690;2023-08-12T05:17:54;6.33;;;5.00;;
16127;SDS011;8168;49.036;7.690;2023-08-12T05:20:25;5.57;;;4.97;;
16127;SDS011;8168;49.036;7.690;2023-08-12T05:22:58;5.40;;;4.77;;
16127;SDS011;8168;49.036;7.690;2023-08-12T05:25:28;5.93;;;5.33;;
16127;SDS011;8168;49.036;7.690;2023-08-12T05:27:59;5.80;;;4.90;;
16127;SDS011;8168;49.036;7.690;2023-08-12T05:30:29;5.40;;;4.90;;
16127;SDS011;8168;49.036;7.690;2023-08-12T05:33:00;5.73;;;5.13;;
16127;SDS011;8168;49.036;7.690;2023-08-12T05:35:34;6.07;;;5.30;;
16127;SDS011;8168;49.036;7.690;2023-08-12T05:38:05;5.93;;;5.33;;
16127;SDS011;8168;49.036;7.690;2023-08-12T05:40:36;6.13;;;5.53;;
16127;SDS011;8168;49.036;7.690;2023-08-12T05:43:06;9.00;;;5.27;;
16127;SDS011;8168;49.036;7.690;2023-08-12T05:45:37;5.90;;;5.30;;
16127;SDS011;8168;49.036;7.690;2023-08-12T05:48:08;5.70;;;5.10;;
16127;SDS011;8168;49.036;7.690;2023-08-12T05:50:38;9.63;;;6.03;;
16127;SDS011;8168;49.036;7.690;2023-08-12T05:53:09;5.87;;;5.27;;
16127;SDS011;8168;49.036;7.690;2023-08-12T05:55:39;5.80;;;5.20;;
16127;SDS011;8168;49.036;7.690;2023-08-12T05:58:10;5.90;;;5.13;;
16127;SDS011;8168;49.036;7.690;2023-08-12T06:00:41;6.23;;;5.63;;
16127;SDS011;8168;49.036;7.690;2023-08-12T06:03:15;6.13;;;5.33;;
16127;SDS011;8168;49.036;7.690;2023-08-12T06:05:46;6.10;;;5.50;;
16127;SDS011;8168;49.036;7.690;2023-08-12T06:08:17;7.97;;;5.73;;
16127;SDS011;8168;49.036;7.690;2023-08-12T06:10:48;6.63;;;5.93;;
16127;SDS011;8168;49.036;7.690;2023-08-12T06:13:18;7.07;;;6.00;;
16127;SDS011;8168;49.036;7.690;2023-08-12T06:15:49;8.50;;;5.83;;
16127;SDS011;8168;49.036;7.690;2023-08-12T06:18:20;7.00;;;5.87;;
16127;SDS011;8168;49.036;7.690;2023-08-12T06:20:50;6.80;;;6.10;;
16127;SDS011;8168;49.036;7.690;2023-08-12T06:23:21;7.93;;;6.23;;
16127;SDS011;8168;49.036;7.690;2023-08-12T06:25:51;7.63;;;5.87;;
16127;SDS011;8168;49.036;7.690;2023-08-12T06:28:22;6.57;;;5.97;;
16127;SDS011;8168;49.036;7.690;2023-08-12T06:30:53;6.27;;;5.43;;
16127;SDS011;8168;49.036;7.690;2023-08-12T06:33:23;6.90;;;6.20;;
16127;SDS011;8168;49.036;7.690;2023-08-12T06:35:54;9.77;;;6.50;;
16127;SDS011;8168;49.036;7.690;2023-08-12T06:38:24;6.93;;;6.00;;
16127;SDS011;8168;49.036;7.690;2023-08-12T06:40:55;6.37;;;5.77;;
16127;SDS011;8168;49.036;7.690;2023-08-12T06:43:26;6.50;;;5.90;;
16127;SDS011;8168;49.036;7.690;2023-08-12T06:45:56;6.40;;;5.73;;
16127;SDS011;8168;49.036;7.690;2023-08-12T06:48:27;8.33;;;5.93;;
16127;SDS011;8168;49.036;7.690;2023-08-12T06:50:57;7.43;;;5.93;;
16127;SDS011;8168;49.036;7.690;2023-08-12T06:53:28;6.63;;;6.00;;
16127;SDS011;8168;49.036;7.690;2023-08-12T06:55:59;9.77;;;6.40;;
16127;SDS011;8168;49.036;7.690;2023-08-12T06:58:30;7.20;;;5.60;;
16127;SDS011;8168;49.036;7.690;2023-08-12T07:01:01;6.53;;;5.40;;
16127;SDS011;8168;49.036;7.690;2023-08-12T07:03:31;6.53;;;5.47;;
16127;SDS011;8168;49.036;7.690;2023-08-12T07:06:02;8.63;;;6.07;;
16127;SDS011;8168;49.036;7.690;2023-08-12T07:08:33;9.05;;;6.20;;
16127;SDS011;8168;49.036;7.690;2023-08-12T07:11:04;6.63;;;5.80;;
16127;SDS011;8168;49.036;7.690;2023-08-12T07:13:34;6.90;;;5.85;;
16127;SDS011;8168;49.036;7.690;2023-08-12T07:16:05;7.13;;;5.93;;
16127;SDS011;8168;49.036;7.690;2023-08-12T07:18:36;5.93;;;5.32;;
16127;SDS011;8168;49.036;7.690;2023-08-12T07:21:06;7.05;;;6.22;;
16127;SDS011;8168;49.036;7.690;2023-08-12T07:23:37;7.10;;;6.13;;
16127;SDS011;8168;49.036;7.690;2023-08-12T07:26:08;8.20;;;6.18;;
16127;SDS011;8168;49.036;7.690;2023-08-12T07:28:38;6.15;;;5.57;;
16127;SDS011;8168;49.036;7.690;2023-08-12T07:31:09;6.00;;;5.40;;
16127;SDS011;8168;49.036;7.690;2023-08-12T07:33:39;5.75;;;5.25;;
16127;SDS011;8168;49.036;7.690;2023-08-12T07:36:10;6.97;;;5.53;;
16127;SDS011;8168;49.036;7.690;2023-08-12T07:38:41;5.55;;;5.00;;
16127;SDS011;8168;49.036;7.690;2023-08-12T07:41:11;8.85;;;4.85;;
16127;SDS011;8168;49.036;7.690;2023-08-12T07:43:42;5.07;;;4.57;;
16127;SDS011;8168;49.036;7.690;2023-08-12T07:46:12;8.85;;;5.15;;
16127;SDS011;8168;49.036;7.690;2023-08-12T07:48:43;5.20;;;4.65;;
16127;SDS011;8168;49.036;7.690;2023-08-12T07:51:14;5.35;;;4.80;;
16127;SDS011;8168;49.036;7.690;2023-08-12T07:53:45;4.75;;;4.18;;
16127;SDS011;8168;49.036;7.690;2023-08-12T07:56:15;5.63;;;4.82;;
16127;SDS011;8168;49.036;7.690;2023-08-12T07:58:46;5.93;;;4.55;;
16127;SDS011;8168;49.036;7.690;2023-08-12T08:01:17;5.55;;;4.60;;
16127;SDS011;8168;49.036;7.690;2023-08-12T08:03:48;4.28;;;3.88;;
16127;SDS011;8168;49.036;7.690;2023-08-12T08:06:18;4.72;;;4.32;;
16127;SDS011;8168;49.036;7.690;2023-08-12T08:08:49;5.65;;;4.80;;
16127;SDS011;8168;49.036;7.690;2023-08-12T08:11:20;5.82;;;4.45;;
16127;SDS011;8168;49.036;7.690;2023-08-12T08:13:51;4.50;;;4.10;;
16127;SDS011;8168;49.036;7.690;2023-08-12T08:16:21;5.97;;;4.95;;
16127;SDS011;8168;49.036;7.690;2023-08-12T08:18:52;4.47;;;4.07;;
16127;SDS011;8168;49.036;7.690;2023-08-12T08:21:23;4.60;;;4.20;;
16127;SDS011;8168;49.036;7.690;2023-08-12T08:23:54;4.32;;;3.58;;
16127;SDS011;8168;49.036;7.690;2023-08-12T08:26:25;5.25;;;4.20;;
16127;SDS011;8168;49.036;7.690;2023-08-12T08:28:56;4.57;;;3.72;;
16127;SDS011;8168;49.036;7.690;2023-08-12T08:31:28;4.32;;;3.65;;
16127;SDS011;8168;49.036;7.690;2023-08-12T08:33:58;3.83;;;3.53;;
16127;SDS011;8168;49.036;7.690;2023-08-12T08:36:29;4.47;;;3.60;;
16127;SDS011;8168;49.036;7.690;2023-08-12T08:38:59;4.82;;;3.63;;
16127;SDS011;8168;49.036;7.690;2023-08-12T08:41:30;4.50;;;4.10;;
16127;SDS011;8168;49.036;7.690;2023-08-12T08:44:02;5.20;;;3.80;;
16127;SDS011;8168;49.036;7.690;2023-08-12T08:46:37;3.67;;;3.38;;
16127;SDS011;8168;49.036;7.690;2023-08-12T08:49:07;5.55;;;3.80;;
16127;SDS011;8168;49.036;7.690;2023-08-12T08:51:41;5.32;;;3.80;;
16127;SDS011;8168;49.036;7.690;2023-08-12T08:54:13;4.43;;;4.03;;
16127;SDS011;8168;49.036;7.690;2023-08-12T08:56:43;3.60;;;3.30;;
16127;SDS011;8168;49.036;7.690;2023-08-12T08:59:15;4.55;;;3.65;;
16127;SDS011;8168;49.036;7.690;2023-08-12T09:01:45;3.85;;;3.55;;
16127;SDS011;8168;49.036;7.690;2023-08-12T09:04:17;3.20;;;3.00;;
16127;SDS011;8168;49.036;7.690;2023-08-12T09:06:51;3.55;;;3.25;;
16127;SDS011;8168;49.036;7.690;2023-08-12T09:09:22;5.50;;;3.70;;
16127;SDS011;8168;49.036;7.690;2023-08-12T09:11:53;3.97;;;3.53;;
16127;SDS011;8168;49.036;7.690;2023-08-12T09:14:25;3.60;;;3.30;;
16127;SDS011;8168;49.036;7.690;2023-08-12T09:16:56;4.65;;;3.88;;
16127;SDS011;8168;49.036;7.690;2023-08-12T09:19:27;3.50;;;3.20;;
16127;SDS011;8168;49.036;7.690;2023-08-12T09:21:58;3.95;;;3.50;;
16127;SDS011;8168;49.036;7.690;2023-08-12T09:24:29;4.80;;;3.97;;
16127;SDS011;8168;49.036;7.690;2023-08-12T09:26:59;4.20;;;3.80;;
16127;SDS011;8168;49.036;7.690;2023-08-12T09:29:34;3.90;;;3.53;;
16127;SDS011;8168;49.036;7.690;2023-08-12T09:32:12;4.00;;;3.60;;
16127;SDS011;8168;49.036;7.690;2023-08-12T09:34:47;4.10;;;3.53;;
16127;SDS011;8168;49.036;7.690;2023-08-12T09:37:18;4.95;;;3.90;;
16127;SDS011;8168;49.036;7.690;2023-08-12T09:39:52;4.93;;;3.80;;
16127;SDS011;8168;49.036;7.690;2023-08-12T09:42:23;4.20;;;3.80;;
16127;SDS011;8168;49.036;7.690;2023-08-12T09:44:54;3.72;;;3.42;;
16127;SDS011;8168;49.036;7.690;2023-08-12T09:47:26;3.88;;;3.58;;
16127;SDS011;8168;49.036;7.690;2023-08-12T09:49:57;5.13;;;3.60;;
16127;SDS011;8168;49.036;7.690;2023-08-12T09:52:29;4.13;;;3.72;;
16127;SDS011;8168;49.036;7.690;2023-08-12T09:54:59;5.15;;;3.78;;
16127;SDS011;8168;49.036;7.690;2023-08-12T09:57:35;3.85;;;3.55;;
16127;SDS011;8168;49.036;7.690;2023-08-12T10:00:10;3.70;;;3.40;;
16127;SDS011;8168;49.036;7.690;2023-08-12T10:02:47;5.20;;;3.58;;
16127;SDS011;8168;49.036;7.690;2023-08-12T10:05:23;3.42;;;3.10;;
16127;SDS011;8168;49.036;7.690;2023-08-12T10:07:57;4.25;;;3.75;;
16127;SDS011;8168;49.036;7.690;2023-08-12T10:10:29;4.25;;;3.85;;
16127;SDS011;8168;49.036;7.690;2023-08-12T10:13:02;4.55;;;4.15;;
16127;SDS011;8168;49.036;7.690;2023-08-12T10:15:36;6.68;;;4.20;;
16127;SDS011;8168;49.036;7.690;2023-08-12T10:18:08;6.68;;;4.38;;
16127;SDS011;8168;49.036;7.690;2023-08-12T10:20:39;4.97;;;4.30;;
16127;SDS011;8168;49.036;7.690;2023-08-12T10:23:14;5.20;;;4.70;;
16127;SDS011;8168;49.036;7.690;2023-08-12T10:25:46;8.52;;;5.07;;
16127;SDS011;8168;49.036;7.690;2023-08-12T10:28:19;10.65;;;5.00;;
16127;SDS011;8168;49.036;7.690;2023-08-12T10:30:50;7.13;;;4.60;;
16127;SDS011;8168;49.036;7.690;2023-08-12T10:33:22;6.72;;;5.05;;
16127;SDS011;8168;49.036;7.690;2023-08-12T10:35:52;5.15;;;4.60;;
16127;SDS011;8168;49.036;7.690;2023-08-12T10:38:25;6.88;;;5.15;;
16127;SDS011;8168;49.036;7.690;2023-08-12T10:41:14;6.45;;;5.03;;
16127;SDS011;8168;49.036;7.690;2023-08-12T10:43:57;4.68;;;4.25;;
16127;SDS011;8168;49.036;7.690;2023-08-12T10:49:08;6.07;;;5.40;;
16127;SDS011;8168;49.036;7.690;2023-08-12T10:54:14;5.88;;;4.70;;
16127;SDS011;8168;49.036;7.690;2023-08-12T11:07:43;6.95;;;5.40;;
16127;SDS011;8168;49.036;7.690;2023-08-12T11:10:17;5.78;;;5.28;;
16127;SDS011;8168;49.036;7.690;2023-08-12T11:18:09;6.57;;;5.15;;
16127;SDS011;8168;49.036;7.690;2023-08-12T11:20:44;5.15;;;4.68;;
16127;SDS011;8168;49.036;7.690;2023-08-12T11:23:16;5.82;;;5.22;;
16127;SDS011;8168;49.036;7.690;2023-08-12T11:25:47;5.03;;;4.50;;
16127;SDS011;8168;49.036;7.690;2023-08-12T11:28:20;5.72;;;4.85;;
16127;SDS011;8168;49.036;7.690;2023-08-12T11:30:50;4.85;;;4.35;;
16127;SDS011;8168;49.036;7.690;2023-08-12T11:33:21;5.45;;;4.95;;
16127;SDS011;8168;49.036;7.690;2023-08-12T11:35:52;5.00;;;4.50;;
16127;SDS011;8168;49.036;7.690;2023-08-12T11:38:22;6.88;;;4.63;;
16127;SDS011;8168;49.036;7.690;2023-08-12T11:40:54;6.25;;;5.05;;
16127;SDS011;8168;49.036;7.690;2023-08-12T11:43:24;5.28;;;4.60;;
16127;SDS011;8168;49.036;7.690;2023-08-12T11:45:56;5.28;;;4.63;;
16127;SDS011;8168;49.036;7.690;2023-08-12T11:48:27;5.93;;;4.40;;
16127;SDS011;8168;49.036;7.690;2023-08-12T11:50:57;4.70;;;4.25;;
16127;SDS011;8168;49.036;7.690;2023-08-12T11:53:28;5.80;;;4.88;;
16127;SDS011;8168;49.036;7.690;2023-08-12T11:55:59;7.68;;;4.80;;
16127;SDS011;8168;49.036;7.690;2023-08-12T11:58:35;4.47;;;4.07;;
16127;SDS011;8168;49.036;7.690;2023-08-12T12:01:06;4.60;;;4.15;;
16127;SDS011;8168;49.036;7.690;2023-08-12T12:03:37;4.65;;;4.10;;
16127;SDS011;8168;49.036;7.690;2023-08-12T12:06:07;4.15;;;3.75;;
16127;SDS011;8168;49.036;7.690;2023-08-12T12:08:38;4.30;;;3.90;;
16127;SDS011;8168;49.036;7.690;2023-08-12T12:11:09;6.38;;;4.28;;
16127;SDS011;8168;49.036;7.690;2023-08-12T12:13:40;6.45;;;4.45;;
16127;SDS011;8168;49.036;7.690;2023-08-12T12:16:12;4.70;;;4.18;;
16127;SDS011;8168;49.036;7.690;2023-08-12T12:18:43;5.35;;;4.50;;
16127;SDS011;8168;49.036;7.690;2023-08-12T12:21:19;4.70;;;4.30;;
16127;SDS011;8168;49.036;7.690;2023-08-12T12:23:52;5.32;;;4.55;;
16127;SDS011;8168;49.036;7.690;2023-08-12T12:26:23;5.60;;;4.22;;
16127;SDS011;8168;49.036;7.690;2023-08-12T12:28:53;4.97;;;4.47;;
16127;SDS011;8168;49.036;7.690;2023-08-12T12:31:24;4.68;;;4.28;;
16127;SDS011;8168;49.036;7.690;2023-08-12T12:33:55;4.47;;;4.07;;
16127;SDS011;8168;49.036;7.690;2023-08-12T12:36:25;6.32;;;4.97;;
16127;SDS011;8168;49.036;7.690;2023-08-12T12:38:56;5.95;;;4.70;;
16127;SDS011;8168;49.036;7.690;2023-08-12T12:41:27;4.43;;;4.03;;
16127;SDS011;8168;49.036;7.690;2023-08-12T12:43:57;5.15;;;4.70;;
16127;SDS011;8168;49.036;7.690;2023-08-12T12:46:31;5.72;;;4.57;;
16127;SDS011;8168;49.036;7.690;2023-08-12T12:49:02;6.10;;;4.80;;
16127;SDS011;8168;49.036;7.690;2023-08-12T12:51:33;5.60;;;4.43;;
16127;SDS011;8168;49.036;7.690;2023-08-12T12:54:03;4.68;;;4.28;;
16127;SDS011;8168;49.036;7.690;2023-08-12T12:56:37;5.20;;;4.63;;
16127;SDS011;8168;49.036;7.690;2023-08-12T12:59:07;5.30;;;4.80;;
16127;SDS011;8168;49.036;7.690;2023-08-12T13:01:38;5.00;;;4.18;;
16127;SDS011;8168;49.036;7.690;2023-08-12T13:04:08;4.80;;;4.20;;
16127;SDS011;8168;49.036;7.690;2023-08-12T13:06:39;4.85;;;4.30;;
16127;SDS011;8168;49.036;7.690;2023-08-12T13:09:10;4.70;;;3.88;;
16127;SDS011;8168;49.036;7.690;2023-08-12T13:11:40;5.47;;;3.72;;
16127;SDS011;8168;49.036;7.690;2023-08-12T13:14:11;3.58;;;3.28;;
16127;SDS011;8168;49.036;7.690;2023-08-12T13:16:42;3.83;;;3.40;;
16127;SDS011;8168;49.036;7.690;2023-08-12T13:19:12;4.65;;;3.08;;
16127;SDS011;8168;49.036;7.690;2023-08-12T13:21:43;3.15;;;2.90;;
16127;SDS011;8168;49.036;7.690;2023-08-12T13:24:13;3.80;;;3.25;;
16127;SDS011;8168;49.036;7.690;2023-08-12T13:26:45;4.57;;;3.45;;
16127;SDS011;8168;49.036;7.690;2023-08-12T13:29:16;4.70;;;3.38;;
16127;SDS011;8168;49.036;7.690;2023-08-12T13:31:46;4.35;;;3.30;;
16127;SDS011;8168;49.036;7.690;2023-08-12T13:34:17;3.35;;;2.80;;
16127;SDS011;8168;49.036;7.690;2023-08-12T13:36:47;3.70;;;3.15;;
16127;SDS011;8168;49.036;7.690;2023-08-12T13:39:18;4.57;;;3.13;;
16127;SDS011;8168;49.036;7.690;2023-08-12T13:41:49;3.28;;;3.08;;
16127;SDS011;8168;49.036;7.690;2023-08-12T13:44:19;4.20;;;3.30;;
16127;SDS011;8168;49.036;7.690;2023-08-12T13:46:50;4.97;;;3.28;;
16127;SDS011;8168;49.036;7.690;2023-08-12T13:49:21;4.90;;;3.85;;
16127;SDS011;8168;49.036;7.690;2023-08-12T13:51:51;5.63;;;3.67;;
16127;SDS011;8168;49.036;7.690;2023-08-12T13:54:22;7.00;;;3.80;;
16127;SDS011;8168;49.036;7.690;2023-08-12T13:56:52;3.63;;;3.28;;
16127;SDS011;8168;49.036;7.690;2023-08-12T13:59:23;4.15;;;3.35;;
16127;SDS011;8168;49.036;7.690;2023-08-12T14:01:53;4.50;;;3.97;;
16127;SDS011;8168;49.036;7.690;2023-08-12T14:04:24;4.05;;;3.33;;
16127;SDS011;8168;49.036;7.690;2023-08-12T14:06:55;5.45;;;3.63;;
16127;SDS011;8168;49.036;7.690;2023-08-12T14:09:26;3.95;;;3.55;;
16127;SDS011;8168;49.036;7.690;2023-08-12T14:11:56;4.50;;;2.85;;
16127;SDS011;8168;49.036;7.690;2023-08-12T14:14:27;6.15;;;2.97;;
16127;SDS011;8168;49.036;7.690;2023-08-12T14:17:00;6.63;;;3.63;;
16127;SDS011;8168;49.036;7.690;2023-08-12T14:19:30;4.55;;;3.42;;
16127;SDS011;8168;49.036;7.690;2023-08-12T14:22:01;5.35;;;3.05;;
16127;SDS011;8168;49.036;7.690;2023-08-12T14:24:32;5.88;;;3.03;;
16127;SDS011;8168;49.036;7.690;2023-08-12T14:27:02;3.38;;;2.65;;
16127;SDS011;8168;49.036;7.690;2023-08-12T14:29:33;3.33;;;2.70;;
16127;SDS011;8168;49.036;7.690;2023-08-12T14:32:04;4.28;;;3.10;;
16127;SDS011;8168;49.036;7.690;2023-08-12T14:34:35;3.47;;;2.78;;
16127;SDS011;8168;49.036;7.690;2023-08-12T14:37:07;3.88;;;2.55;;
16127;SDS011;8168;49.036;7.690;2023-08-12T14:39:38;3.22;;;2.75;;
16127;SDS011;8168;49.036;7.690;2023-08-12T14:42:09;3.28;;;2.50;;
16127;SDS011;8168;49.036;7.690;2023-08-12T14:44:40;2.50;;;2.30;;
16127;SDS011;8168;49.036;7.690;2023-08-12T14:47:10;2.72;;;2.38;;
16127;SDS011;8168;49.036;7.690;2023-08-12T14:49:41;3.28;;;2.75;;
16127;SDS011;8168;49.036;7.690;2023-08-12T14:52:18;3.28;;;2.50;;
16127;SDS011;8168;49.036;7.690;2023-08-12T14:54:49;3.00;;;2.45;;
16127;SDS011;8168;49.036;7.690;2023-08-12T14:57:20;3.33;;;2.50;;
16127;SDS011;8168;49.036;7.690;2023-08-12T14:59:51;3.72;;;2.30;;
16127;SDS011;8168;49.036;7.690;2023-08-12T15:02:22;2.53;;;2.10;;
16127;SDS011;8168;49.036;7.690;2023-08-12T15:04:52;4.85;;;2.38;;
16127;SDS011;8168;49.036;7.690;2023-08-12T15:07:23;2.47;;;2.28;;
16127;SDS011;8168;49.036;7.690;2023-08-12T15:09:54;4.88;;;2.40;;
16127;SDS011;8168;49.036;7.690;2023-08-12T15:12:27;2.30;;;1.90;;
16127;SDS011;8168;49.036;7.690;2023-08-12T15:14:58;2.92;;;2.20;;
16127;SDS011;8168;49.036;7.690;2023-08-12T15:17:29;2.15;;;1.90;;
16127;SDS011;8168;49.036;7.690;2023-08-12T15:19:59;3.60;;;1.92;;
16127;SDS011;8168;49.036;7.690;2023-08-12T15:22:30;2.70;;;2.03;;
16127;SDS011;8168;49.036;7.690;2023-08-12T15:25:00;1.88;;;1.65;;
16127;SDS011;8168;49.036;7.690;2023-08-12T15:27:32;2.38;;;2.13;;
16127;SDS011;8168;49.036;7.690;2023-08-12T15:30:02;3.70;;;2.25;;
16127;SDS011;8168;49.036;7.690;2023-08-12T15:32:33;2.10;;;1.90;;
16127;SDS011;8168;49.036;7.690;2023-08-12T15:35:05;5.18;;;1.95;;
16127;SDS011;8168;49.036;7.690;2023-08-12T15:37:35;2.65;;;2.10;;
16127;SDS011;8168;49.036;7.690;2023-08-12T15:40:06;4.47;;;2.05;;
16127;SDS011;8168;49.036;7.690;2023-08-12T15:42:38;2.58;;;2.30;;
16127;SDS011;8168;49.036;7.690;2023-08-12T15:45:09;2.33;;;1.92;;
16127;SDS011;8168;49.036;7.690;2023-08-12T15:47:41;4.95;;;1.90;;